sensor_id;sensor_type;location;lat;lon;timestamp;pressure;altitude;pressure_sealevel;temperature;humidity
78584;BME280;67880;46.082;18.234;2023-08-06T00:00:09;98379.03;;;19.60;86.41
78584;BME280;67880;46.082;18.234;2023-08-06T00:00:54;98366.97;;;19.56;86.44
78584;BME280;67880;46.082;18.234;2023-08-06T00:01:39;98366.00;;;19.28;86.74
78584;BME280;67880;46.082;18.234;2023-08-06T00:02:15;98371.84;;;19.37;86.24
78584;BME280;67880;46.082;18.234;2023-08-06T00:02:48;98371.75;;;19.32;86.71
78584;BME280;67880;46.082;18.234;2023-08-06T00:03:27;98367.38;;;19.31;86.61
78584;BME280;67880;46.082;18.234;2023-08-06T00:04:11;98378.84;;;19.33;87.07
78584;BME280;67880;46.082;18.234;2023-08-06T00:05:02;98373.91;;;19.30;87.17
78584;BME280;67880;46.082;18.234;2023-08-06T00:05:44;98369.63;;;19.34;87.17
78584;BME280;67880;46.082;18.234;2023-08-06T00:06:24;98367.22;;;19.20;87.27
78584;BME280;67880;46.082;18.234;2023-08-06T00:07:06;98362.00;;;19.19;87.40
78584;BME280;67880;46.082;18.234;2023-08-06T00:08:53;98371.91;;;19.25;86.99
78584;BME280;67880;46.082;18.234;2023-08-06T00:10:06;98375.22;;;19.27;86.65
78584;BME280;67880;46.082;18.234;2023-08-06T00:11:25;98376.38;;;19.31;86.49
78584;BME280;67880;46.082;18.234;2023-08-06T00:12:39;98373.06;;;19.29;86.39
78584;BME280;67880;46.082;18.234;2023-08-06T00:13:18;98370.03;;;19.26;87.02
78584;BME280;67880;46.082;18.234;2023-08-06T00:13:54;98371.84;;;19.37;86.52
78584;BME280;67880;46.082;18.234;2023-08-06T00:14:30;98374.06;;;19.40;86.17
78584;BME280;67880;46.082;18.234;2023-08-06T00:15:07;98365.56;;;19.36;86.47
78584;BME280;67880;46.082;18.234;2023-08-06T00:15:43;98363.41;;;19.38;86.24
78584;BME280;67880;46.082;18.234;2023-08-06T00:16:22;98374.06;;;19.40;86.14
78584;BME280;67880;46.082;18.234;2023-08-06T00:17:01;98365.66;;;19.41;85.81
78584;BME280;67880;46.082;18.234;2023-08-06T00:17:43;98363.19;;;19.40;85.98
78584;BME280;67880;46.082;18.234;2023-08-06T00:18:21;98361.47;;;19.34;86.14
78584;BME280;67880;46.082;18.234;2023-08-06T00:20:04;98361.53;;;19.39;86.42
78584;BME280;67880;46.082;18.234;2023-08-06T00:21:14;98356.00;;;19.34;86.01
78584;BME280;67880;46.082;18.234;2023-08-06T00:21:50;98364.50;;;19.37;86.53
78584;BME280;67880;46.082;18.234;2023-08-06T00:22:31;98361.75;;;19.37;86.01
78584;BME280;67880;46.082;18.234;2023-08-06T00:23:07;98354.19;;;19.39;85.98
78584;BME280;67880;46.082;18.234;2023-08-06T00:24:16;98365.47;;;19.31;85.69
78584;BME280;67880;46.082;18.234;2023-08-06T00:24:50;98368.19;;;19.31;86.52
78584;BME280;67880;46.082;18.234;2023-08-06T00:25:29;98360.69;;;19.38;86.04
78584;BME280;67880;46.082;18.234;2023-08-06T00:26:03;98362.84;;;19.36;86.08
78584;BME280;67880;46.082;18.234;2023-08-06T00:26:39;98363.34;;;19.33;86.53
78584;BME280;67880;46.082;18.234;2023-08-06T00:27:14;98360.94;;;19.37;86.14
78584;BME280;67880;46.082;18.234;2023-08-06T00:27:48;98356.91;;;19.39;85.98
78584;BME280;67880;46.082;18.234;2023-08-06T00:29:35;98360.38;;;19.35;86.22
78584;BME280;67880;46.082;18.234;2023-08-06T00:31:19;98356.91;;;19.23;86.98
78584;BME280;67880;46.082;18.234;2023-08-06T00:32:30;98349.91;;;19.10;87.67
78584;BME280;67880;46.082;18.234;2023-08-06T00:33:05;98348.34;;;19.14;87.12
78584;BME280;67880;46.082;18.234;2023-08-06T00:33:41;98345.22;;;19.22;87.08
78584;BME280;67880;46.082;18.234;2023-08-06T00:34:16;98349.16;;;19.14;87.14
78584;BME280;67880;46.082;18.234;2023-08-06T00:34:52;98344.88;;;19.18;87.22
78584;BME280;67880;46.082;18.234;2023-08-06T00:35:26;98354.91;;;19.18;87.25
78584;BME280;67880;46.082;18.234;2023-08-06T00:36:02;98352.72;;;19.15;87.21
78584;BME280;67880;46.082;18.234;2023-08-06T00:36:39;98356.00;;;19.17;87.11
78584;BME280;67880;46.082;18.234;2023-08-06T00:37:14;98352.84;;;19.25;86.64
78584;BME280;67880;46.082;18.234;2023-08-06T00:37:48;98355.28;;;19.21;86.56
78584;BME280;67880;46.082;18.234;2023-08-06T00:38:27;98363.25;;;19.28;86.06
78584;BME280;67880;46.082;18.234;2023-08-06T00:39:05;98357.91;;;19.33;85.96
78584;BME280;67880;46.082;18.234;2023-08-06T00:39:43;98362.75;;;19.31;86.15
78584;BME280;67880;46.082;18.234;2023-08-06T00:40:22;98367.97;;;19.33;86.00
78584;BME280;67880;46.082;18.234;2023-08-06T00:40:57;98365.41;;;19.26;86.27
78584;BME280;67880;46.082;18.234;2023-08-06T00:41:35;98367.38;;;19.31;85.69
78584;BME280;67880;46.082;18.234;2023-08-06T00:42:10;98364.97;;;19.17;86.34
78584;BME280;67880;46.082;18.234;2023-08-06T00:42:46;98362.34;;;19.23;86.11
78584;BME280;67880;46.082;18.234;2023-08-06T00:44:32;98366.41;;;19.20;85.72
78584;BME280;67880;46.082;18.234;2023-08-06T00:45:59;98372.66;;;19.20;86.11
78584;BME280;67880;46.082;18.234;2023-08-06T00:47:27;98370.69;;;19.16;86.04
78584;BME280;67880;46.082;18.234;2023-08-06T00:48:39;98370.88;;;19.26;85.45
78584;BME280;67880;46.082;18.234;2023-08-06T00:49:16;98362.59;;;19.21;85.70
78584;BME280;67880;46.082;18.234;2023-08-06T00:49:54;98370.16;;;19.19;85.74
78584;BME280;67880;46.082;18.234;2023-08-06T00:51:22;98366.97;;;19.22;85.68
78584;BME280;67880;46.082;18.234;2023-08-06T00:52:04;98363.53;;;19.27;85.30
78584;BME280;67880;46.082;18.234;2023-08-06T00:53:13;98366.47;;;19.25;85.50
78584;BME280;67880;46.082;18.234;2023-08-06T00:54:23;98362.59;;;19.21;86.00
78584;BME280;67880;46.082;18.234;2023-08-06T00:55:10;98364.00;;;19.24;85.92
78584;BME280;67880;46.082;18.234;2023-08-06T00:55:52;98361.94;;;19.14;86.42
78584;BME280;67880;46.082;18.234;2023-08-06T00:56:31;98363.25;;;19.11;86.40
78584;BME280;67880;46.082;18.234;2023-08-06T00:57:15;98356.81;;;19.17;86.38
78584;BME280;67880;46.082;18.234;2023-08-06T00:57:57;98366.16;;;19.21;86.24
78584;BME280;67880;46.082;18.234;2023-08-06T00:59:48;98361.09;;;19.30;86.83
78584;BME280;67880;46.082;18.234;2023-08-06T01:01:44;98359.97;;;19.26;87.13
78584;BME280;67880;46.082;18.234;2023-08-06T01:02:56;98360.81;;;19.27;86.55
78584;BME280;67880;46.082;18.234;2023-08-06T01:04:07;98366.97;;;19.22;86.23
78584;BME280;67880;46.082;18.234;2023-08-06T01:04:47;98362.53;;;19.33;86.08
78584;BME280;67880;46.082;18.234;2023-08-06T01:05:23;98374.25;;;19.33;85.41
78584;BME280;67880;46.082;18.234;2023-08-06T01:06:00;98379.91;;;19.32;85.93
78584;BME280;67880;46.082;18.234;2023-08-06T01:12:45;98377.63;;;19.40;85.03
78584;BME280;67880;46.082;18.234;2023-08-06T01:13:37;98377.53;;;19.35;85.42
78584;BME280;67880;46.082;18.234;2023-08-06T01:15:32;98377.94;;;19.27;85.86
78584;BME280;67880;46.082;18.234;2023-08-06T01:17:01;98378.44;;;19.24;86.36
78584;BME280;67880;46.082;18.234;2023-08-06T01:18:15;98379.59;;;19.28;86.17
78584;BME280;67880;46.082;18.234;2023-08-06T01:19:31;98376.63;;;19.30;86.13
78584;BME280;67880;46.082;18.234;2023-08-06T01:20:10;98373.59;;;19.26;86.19
78584;BME280;67880;46.082;18.234;2023-08-06T01:20:51;98382.22;;;19.23;86.48
78584;BME280;67880;46.082;18.234;2023-08-06T01:21:30;98379.44;;;19.35;86.52
78584;BME280;67880;46.082;18.234;2023-08-06T01:22:08;98373.97;;;19.35;86.19
78584;BME280;67880;46.082;18.234;2023-08-06T01:23:00;98377.69;;;19.29;86.52
78584;BME280;67880;46.082;18.234;2023-08-06T01:24:07;98374.63;;;19.25;86.50
78584;BME280;67880;46.082;18.234;2023-08-06T01:24:47;98377.59;;;19.24;86.96
78584;BME280;67880;46.082;18.234;2023-08-06T01:25:37;98372.75;;;19.26;86.80
78584;BME280;67880;46.082;18.234;2023-08-06T01:26:26;98384.63;;;19.36;86.91
78584;BME280;67880;46.082;18.234;2023-08-06T01:27:04;98382.31;;;19.28;86.84
78584;BME280;67880;46.082;18.234;2023-08-06T01:27:48;98372.56;;;19.15;87.42
78584;BME280;67880;46.082;18.234;2023-08-06T01:29:35;98375.78;;;19.29;87.01
78584;BME280;67880;46.082;18.234;2023-08-06T01:30:17;98379.84;;;19.27;86.80
78584;BME280;67880;46.082;18.234;2023-08-06T01:30:59;98378.94;;;19.21;87.41
78584;BME280;67880;46.082;18.234;2023-08-06T01:31:48;98376.78;;;19.23;87.36
78584;BME280;67880;46.082;18.234;2023-08-06T01:32:32;98376.88;;;19.28;86.79
78584;BME280;67880;46.082;18.234;2023-08-06T01:33:53;98379.50;;;19.23;87.39
78584;BME280;67880;46.082;18.234;2023-08-06T01:35:04;98373.91;;;19.13;87.43
78584;BME280;67880;46.082;18.234;2023-08-06T01:36:15;98377.28;;;19.20;87.00
78584;BME280;67880;46.082;18.234;2023-08-06T01:36:53;98375.69;;;19.24;87.17
78584;BME280;67880;46.082;18.234;2023-08-06T01:37:28;98379.84;;;19.27;87.02
78584;BME280;67880;46.082;18.234;2023-08-06T01:38:09;98387.91;;;19.21;87.28
78584;BME280;67880;46.082;18.234;2023-08-06T01:38:45;98381.66;;;19.21;87.39
78584;BME280;67880;46.082;18.234;2023-08-06T01:39:21;98377.84;;;19.22;86.83
78584;BME280;67880;46.082;18.234;2023-08-06T01:39:58;98377.69;;;19.29;86.83
78584;BME280;67880;46.082;18.234;2023-08-06T01:40:33;98383.06;;;19.40;86.42
78584;BME280;67880;46.082;18.234;2023-08-06T01:41:10;98380.25;;;19.35;86.68
78584;BME280;67880;46.082;18.234;2023-08-06T01:41:47;98378.34;;;19.36;87.08
78584;BME280;67880;46.082;18.234;2023-08-06T01:42:26;98380.16;;;19.30;86.78
78584;BME280;67880;46.082;18.234;2023-08-06T01:43:30;98371.59;;;19.21;87.34
78584;BME280;67880;46.082;18.234;2023-08-06T01:45:32;98363.69;;;19.20;87.74
78584;BME280;67880;46.082;18.234;2023-08-06T01:46:35;98360.53;;;19.11;88.32
78584;BME280;67880;46.082;18.234;2023-08-06T01:47:10;98362.16;;;19.12;89.18
78584;BME280;67880;46.082;18.234;2023-08-06T01:47:44;98363.03;;;19.13;88.54
78584;BME280;67880;46.082;18.234;2023-08-06T01:48:27;98370.41;;;19.17;88.36
78584;BME280;67880;46.082;18.234;2023-08-06T01:49:08;98379.75;;;19.21;87.36
78584;BME280;67880;46.082;18.234;2023-08-06T01:50:02;98380.91;;;19.09;89.10
78584;BME280;67880;46.082;18.234;2023-08-06T01:50:38;98375.47;;;19.09;87.97
78584;BME280;67880;46.082;18.234;2023-08-06T01:52:53;98377.19;;;19.15;89.09
78584;BME280;67880;46.082;18.234;2023-08-06T01:53:29;98372.00;;;19.13;88.31
78584;BME280;67880;46.082;18.234;2023-08-06T01:54:25;98378.03;;;19.15;89.27
78584;BME280;67880;46.082;18.234;2023-08-06T01:55:04;98369.84;;;19.15;88.96
78584;BME280;67880;46.082;18.234;2023-08-06T01:55:51;98370.59;;;19.11;89.16
78584;BME280;67880;46.082;18.234;2023-08-06T01:56:25;98371.19;;;19.13;88.96
78584;BME280;67880;46.082;18.234;2023-08-06T01:57:08;98370.59;;;19.11;89.02
78584;BME280;67880;46.082;18.234;2023-08-06T01:57:43;98368.13;;;19.09;89.28
78584;BME280;67880;46.082;18.234;2023-08-06T01:58:42;98361.28;;;19.07;88.88
78584;BME280;67880;46.082;18.234;2023-08-06T01:59:24;98363.31;;;19.00;89.39
78584;BME280;67880;46.082;18.234;2023-08-06T02:01:11;98366.78;;;18.95;89.65
78584;BME280;67880;46.082;18.234;2023-08-06T02:02:00;98371.41;;;18.94;89.62
78584;BME280;67880;46.082;18.234;2023-08-06T02:03:36;98365.97;;;18.94;89.48
78584;BME280;67880;46.082;18.234;2023-08-06T02:04:45;98375.03;;;19.00;90.28
78584;BME280;67880;46.082;18.234;2023-08-06T02:06:39;98376.84;;;18.94;89.05
78584;BME280;67880;46.082;18.234;2023-08-06T02:07:43;98371.63;;;18.93;89.62
78584;BME280;67880;46.082;18.234;2023-08-06T02:08:47;98364.78;;;18.90;87.19
78584;BME280;67880;46.082;18.234;2023-08-06T02:09:43;98366.78;;;18.95;87.63
78584;BME280;67880;46.082;18.234;2023-08-06T02:12:33;98371.06;;;18.91;87.73
78584;BME280;67880;46.082;18.234;2023-08-06T02:13:32;98372.03;;;18.85;89.15
78584;BME280;67880;46.082;18.234;2023-08-06T02:15:46;98370.81;;;18.92;87.07
78584;BME280;67880;46.082;18.234;2023-08-06T02:16:40;98372.84;;;18.85;87.23
78584;BME280;67880;46.082;18.234;2023-08-06T02:17:37;98376.19;;;18.87;87.73
78584;BME280;67880;46.082;18.234;2023-08-06T02:18:16;98367.41;;;18.85;87.90
78584;BME280;67880;46.082;18.234;2023-08-06T02:18:56;98378.28;;;18.85;87.45
78584;BME280;67880;46.082;18.234;2023-08-06T02:20:22;98374.13;;;18.94;87.65
78584;BME280;67880;46.082;18.234;2023-08-06T02:21:35;98373.94;;;18.84;87.75
78584;BME280;67880;46.082;18.234;2023-08-06T02:22:16;98373.69;;;18.86;87.09
78584;BME280;67880;46.082;18.234;2023-08-06T02:23:14;98371.16;;;18.96;86.68
78584;BME280;67880;46.082;18.234;2023-08-06T02:24:15;98373.19;;;18.89;87.00
78584;BME280;67880;46.082;18.234;2023-08-06T02:25:29;98377.22;;;18.86;87.42
78584;BME280;67880;46.082;18.234;2023-08-06T02:27:42;98375.16;;;18.77;87.37
78584;BME280;67880;46.082;18.234;2023-08-06T02:28:51;98374.81;;;18.73;87.54
78584;BME280;67880;46.082;18.234;2023-08-06T02:29:32;98375.47;;;18.80;87.21
78584;BME280;67880;46.082;18.234;2023-08-06T02:30:08;98371.09;;;18.79;87.12
78584;BME280;67880;46.082;18.234;2023-08-06T02:30:58;98373.16;;;18.72;87.63
78584;BME280;67880;46.082;18.234;2023-08-06T02:31:42;98374.31;;;18.76;87.73
78584;BME280;67880;46.082;18.234;2023-08-06T02:32:29;98369.97;;;18.75;87.74
78584;BME280;67880;46.082;18.234;2023-08-06T02:33:33;98370.69;;;18.71;88.15
78584;BME280;67880;46.082;18.234;2023-08-06T02:34:35;98377.88;;;18.65;87.46
78584;BME280;67880;46.082;18.234;2023-08-06T02:36:51;98382.38;;;18.71;87.17
78584;BME280;67880;46.082;18.234;2023-08-06T02:38:03;98384.53;;;18.69;87.58
78584;BME280;67880;46.082;18.234;2023-08-06T02:39:50;98378.28;;;18.57;88.69
78584;BME280;67880;46.082;18.234;2023-08-06T02:40:36;98384.03;;;18.60;88.52
78584;BME280;67880;46.082;18.234;2023-08-06T02:41:15;98375.00;;;18.55;87.88
78584;BME280;67880;46.082;18.234;2023-08-06T02:42:34;98383.81;;;18.62;86.83
78584;BME280;67880;46.082;18.234;2023-08-06T02:43:38;98373.88;;;18.67;86.53
78584;BME280;67880;46.082;18.234;2023-08-06T02:45:34;98373.41;;;18.59;87.24
78584;BME280;67880;46.082;18.234;2023-08-06T02:47:07;98371.91;;;18.51;87.11
78584;BME280;67880;46.082;18.234;2023-08-06T02:48:56;98369.59;;;18.43;87.72
78584;BME280;67880;46.082;18.234;2023-08-06T02:50:23;98367.66;;;18.55;87.17
78584;BME280;67880;46.082;18.234;2023-08-06T02:51:30;98372.59;;;18.58;86.65
78584;BME280;67880;46.082;18.234;2023-08-06T02:52:29;98366.91;;;18.60;87.19
78584;BME280;67880;46.082;18.234;2023-08-06T02:53:10;98357.34;;;18.57;87.46
78584;BME280;67880;46.082;18.234;2023-08-06T02:54:14;98358.75;;;18.60;86.15
78584;BME280;67880;46.082;18.234;2023-08-06T02:55:10;98361.00;;;18.63;85.93
78584;BME280;67880;46.082;18.234;2023-08-06T02:55:50;98355.47;;;18.58;85.65
78584;BME280;67880;46.082;18.234;2023-08-06T02:58:13;98353.97;;;18.50;86.87
78584;BME280;67880;46.082;18.234;2023-08-06T02:59:16;98346.97;;;18.54;86.23
78584;BME280;67880;46.082;18.234;2023-08-06T03:00:35;98347.22;;;18.53;86.14
78584;BME280;67880;46.082;18.234;2023-08-06T03:01:32;98346.13;;;18.54;88.04
78584;BME280;67880;46.082;18.234;2023-08-06T03:03:19;98336.47;;;18.46;86.79
78584;BME280;67880;46.082;18.234;2023-08-06T03:04:09;98334.13;;;18.50;86.67
78584;BME280;67880;46.082;18.234;2023-08-06T03:05:02;98343.56;;;18.47;86.47
78584;BME280;67880;46.082;18.234;2023-08-06T03:06:04;98338.88;;;18.43;86.53
78584;BME280;67880;46.082;18.234;2023-08-06T03:07:36;98338.06;;;18.42;87.42
78584;BME280;67880;46.082;18.234;2023-08-06T03:08:48;98333.19;;;18.44;86.81
78584;BME280;67880;46.082;18.234;2023-08-06T03:10:59;98333.50;;;18.48;87.09
78584;BME280;67880;46.082;18.234;2023-08-06T03:12:34;98334.72;;;18.40;87.59
78584;BME280;67880;46.082;18.234;2023-08-06T03:13:32;98330.38;;;18.39;87.17
78584;BME280;67880;46.082;18.234;2023-08-06T03:15:28;98322.47;;;18.37;86.93
78584;BME280;67880;46.082;18.234;2023-08-06T03:34:08;98326.13;;;18.43;87.83
78584;BME280;67880;46.082;18.234;2023-08-06T03:36:56;98327.78;;;18.32;87.54
78584;BME280;67880;46.082;18.234;2023-08-06T03:41:24;98323.09;;;18.56;88.05
78584;BME280;67880;46.082;18.234;2023-08-06T03:49:12;98344.22;;;18.37;87.75
78584;BME280;67880;46.082;18.234;2023-08-06T03:52:38;98339.09;;;18.41;88.23
78584;BME280;67880;46.082;18.234;2023-08-06T03:59:05;98356.72;;;18.38;88.86
78584;BME280;67880;46.082;18.234;2023-08-06T04:46:59;98339.91;;;18.82;84.47
78584;BME280;67880;46.082;18.234;2023-08-06T04:54:07;98330.41;;;18.84;83.52
78584;BME280;67880;46.082;18.234;2023-08-06T04:59:14;98331.66;;;18.77;82.82
78584;BME280;67880;46.082;18.234;2023-08-06T05:02:42;98334.31;;;18.88;83.42
78584;BME280;67880;46.082;18.234;2023-08-06T05:04:26;98330.50;;;18.89;84.02
78584;BME280;67880;46.082;18.234;2023-08-06T05:20:47;98342.75;;;19.20;82.22
78584;BME280;67880;46.082;18.234;2023-08-06T05:22:20;98339.69;;;19.17;82.35
78584;BME280;67880;46.082;18.234;2023-08-06T05:28:01;98343.44;;;18.99;84.59
78584;BME280;67880;46.082;18.234;2023-08-06T05:29:01;98338.41;;;18.91;85.42
78584;BME280;67880;46.082;18.234;2023-08-06T05:30:01;98343.50;;;18.71;86.35
78584;BME280;67880;46.082;18.234;2023-08-06T05:30:54;98349.88;;;18.64;87.94
78584;BME280;67880;46.082;18.234;2023-08-06T05:32:00;98353.88;;;18.74;87.32
78584;BME280;67880;46.082;18.234;2023-08-06T05:34:03;98348.13;;;18.87;87.66
78584;BME280;67880;46.082;18.234;2023-08-06T05:35:40;98348.94;;;18.71;88.21
78584;BME280;67880;46.082;18.234;2023-08-06T05:36:39;98361.72;;;18.58;89.97
78584;BME280;67880;46.082;18.234;2023-08-06T05:38:42;98353.19;;;18.66;89.59
78584;BME280;67880;46.082;18.234;2023-08-06T05:44:59;98358.03;;;18.93;88.54
78584;BME280;67880;46.082;18.234;2023-08-06T05:47:58;98358.03;;;18.93;89.12
78584;BME280;67880;46.082;18.234;2023-08-06T05:50:12;98357.56;;;18.96;87.69
78584;BME280;67880;46.082;18.234;2023-08-06T05:54:49;98356.03;;;18.60;90.13
78584;BME280;67880;46.082;18.234;2023-08-06T05:56:16;98359.81;;;18.71;89.75
78584;BME280;67880;46.082;18.234;2023-08-06T05:57:14;98356.84;;;18.72;90.19
78584;BME280;67880;46.082;18.234;2023-08-06T06:01:04;98358.88;;;18.93;88.80
78584;BME280;67880;46.082;18.234;2023-08-06T06:02:23;98357.03;;;18.82;88.71
78584;BME280;67880;46.082;18.234;2023-08-06T06:03:21;98361.31;;;18.78;88.77
78584;BME280;67880;46.082;18.234;2023-08-06T06:05:49;98358.94;;;18.99;89.17
78584;BME280;67880;46.082;18.234;2023-08-06T06:10:04;98356.97;;;18.94;89.24
78584;BME280;67880;46.082;18.234;2023-08-06T06:11:14;98366.47;;;19.08;87.81
78584;BME280;67880;46.082;18.234;2023-08-06T06:12:21;98362.44;;;19.11;86.99
78584;BME280;67880;46.082;18.234;2023-08-06T06:13:47;98377.59;;;19.24;86.97
78584;BME280;67880;46.082;18.234;2023-08-06T06:15:22;98374.13;;;19.11;87.43
78584;BME280;67880;46.082;18.234;2023-08-06T06:16:00;98363.84;;;19.13;85.47
78584;BME280;67880;46.082;18.234;2023-08-06T06:16:49;98373.91;;;19.13;85.82
78584;BME280;67880;46.082;18.234;2023-08-06T06:17:44;98376.88;;;19.28;85.68
78584;BME280;67880;46.082;18.234;2023-08-06T06:18:54;98368.13;;;19.26;84.76
78584;BME280;67880;46.082;18.234;2023-08-06T06:21:31;98375.13;;;19.22;82.95
78584;BME280;67880;46.082;18.234;2023-08-06T06:23:09;98369.03;;;19.48;81.66
78584;BME280;67880;46.082;18.234;2023-08-06T06:25:32;98371.13;;;19.58;80.72
78584;BME280;67880;46.082;18.234;2023-08-06T06:28:21;98369.44;;;19.40;79.27
78584;BME280;67880;46.082;18.234;2023-08-06T06:30:06;98375.13;;;19.56;79.34
78584;BME280;67880;46.082;18.234;2023-08-06T06:31:37;98376.97;;;19.67;79.02
78584;BME280;67880;46.082;18.234;2023-08-06T06:32:44;98370.34;;;19.63;78.66
78584;BME280;67880;46.082;18.234;2023-08-06T06:34:56;98371.09;;;19.75;77.31
78584;BME280;67880;46.082;18.234;2023-08-06T06:36:10;98375.16;;;19.72;77.29
78584;BME280;67880;46.082;18.234;2023-08-06T06:37:41;98378.63;;;19.68;77.96
78584;BME280;67880;46.082;18.234;2023-08-06T06:38:25;98377.88;;;19.72;77.81
78584;BME280;67880;46.082;18.234;2023-08-06T06:39:03;98375.22;;;19.78;78.09
78584;BME280;67880;46.082;18.234;2023-08-06T06:39:47;98372.81;;;19.81;77.62
78584;BME280;67880;46.082;18.234;2023-08-06T06:40:34;98364.03;;;19.96;76.26
78584;BME280;67880;46.082;18.234;2023-08-06T06:41:20;98378.13;;;20.10;76.41
78584;BME280;67880;46.082;18.234;2023-08-06T06:42:17;98372.69;;;20.10;75.84
78584;BME280;67880;46.082;18.234;2023-08-06T06:44:03;98380.41;;;20.18;75.79
78584;BME280;67880;46.082;18.234;2023-08-06T06:45:33;98374.00;;;20.07;75.86
78584;BME280;67880;46.082;18.234;2023-08-06T06:46:09;98377.59;;;20.13;75.40
78584;BME280;67880;46.082;18.234;2023-08-06T06:46:52;98374.06;;;20.12;75.48
78584;BME280;67880;46.082;18.234;2023-08-06T06:48:14;98385.72;;;20.08;75.67
78584;BME280;67880;46.082;18.234;2023-08-06T06:49:51;98386.34;;;20.15;75.25
78584;BME280;67880;46.082;18.234;2023-08-06T06:51:02;98388.75;;;20.33;74.33
78584;BME280;67880;46.082;18.234;2023-08-06T06:52:10;98384.72;;;20.58;74.35
78584;BME280;67880;46.082;18.234;2023-08-06T06:54:20;98384.00;;;20.67;73.32
78584;BME280;67880;46.082;18.234;2023-08-06T06:59:43;98383.34;;;20.55;71.92
78584;BME280;67880;46.082;18.234;2023-08-06T07:03:51;98388.34;;;20.90;72.42
78584;BME280;67880;46.082;18.234;2023-08-06T07:04:54;98391.75;;;21.02;72.57
78584;BME280;67880;46.082;18.234;2023-08-06T07:05:35;98381.13;;;20.79;71.22
78584;BME280;67880;46.082;18.234;2023-08-06T07:06:17;98394.56;;;20.59;72.35
78584;BME280;67880;46.082;18.234;2023-08-06T07:07:01;98387.16;;;20.15;73.20
78584;BME280;67880;46.082;18.234;2023-08-06T07:07:54;98398.88;;;20.54;72.06
78584;BME280;67880;46.082;18.234;2023-08-06T07:10:06;98389.88;;;20.15;71.91
78584;BME280;67880;46.082;18.234;2023-08-06T07:11:04;98395.03;;;20.34;70.36
78584;BME280;67880;46.082;18.234;2023-08-06T07:13:30;98405.03;;;20.45;70.42
78584;BME280;67880;46.082;18.234;2023-08-06T07:18:54;98398.06;;;20.15;72.06
78584;BME280;67880;46.082;18.234;2023-08-06T07:21:42;98392.25;;;20.07;72.90
78584;BME280;67880;46.082;18.234;2023-08-06T07:22:38;98403.47;;;20.10;73.10
78584;BME280;67880;46.082;18.234;2023-08-06T07:26:38;98405.38;;;20.10;71.95
78584;BME280;67880;46.082;18.234;2023-08-06T07:28:04;98402.50;;;19.99;72.48
78584;BME280;67880;46.082;18.234;2023-08-06T07:29:54;98404.31;;;19.94;73.51
78584;BME280;67880;46.082;18.234;2023-08-06T07:30:32;98406.66;;;19.85;73.71
78584;BME280;67880;46.082;18.234;2023-08-06T07:31:07;98410.81;;;19.71;73.60
78584;BME280;67880;46.082;18.234;2023-08-06T07:32:56;98413.91;;;19.80;74.53
78584;BME280;67880;46.082;18.234;2023-08-06T07:33:35;98413.66;;;19.81;74.04
78584;BME280;67880;46.082;18.234;2023-08-06T07:34:34;98411.03;;;19.86;74.64
78584;BME280;67880;46.082;18.234;2023-08-06T07:35:43;98417.47;;;19.80;73.76
78584;BME280;67880;46.082;18.234;2023-08-06T07:36:35;98422.44;;;19.66;73.88
78584;BME280;67880;46.082;18.234;2023-08-06T07:38:06;98419.75;;;19.88;73.69
78584;BME280;67880;46.082;18.234;2023-08-06T07:39:31;98415.91;;;19.84;72.86
78584;BME280;67880;46.082;18.234;2023-08-06T07:40:26;98412.66;;;19.87;74.32
78584;BME280;67880;46.082;18.234;2023-08-06T07:41:08;98416.78;;;19.90;73.41
78584;BME280;67880;46.082;18.234;2023-08-06T07:41:50;98413.50;;;19.88;73.42
78584;BME280;67880;46.082;18.234;2023-08-06T07:42:34;98408.84;;;20.05;73.00
78584;BME280;67880;46.082;18.234;2023-08-06T07:43:39;98415.28;;;19.99;70.73
78584;BME280;67880;46.082;18.234;2023-08-06T07:45:37;98409.66;;;20.06;71.37
78584;BME280;67880;46.082;18.234;2023-08-06T07:46:32;98410.63;;;20.16;71.08
78584;BME280;67880;46.082;18.234;2023-08-06T07:47:31;98407.91;;;20.16;70.76
78584;BME280;67880;46.082;18.234;2023-08-06T07:48:14;98408.22;;;20.20;71.18
78584;BME280;67880;46.082;18.234;2023-08-06T07:48:57;98418.03;;;20.21;70.37
78584;BME280;67880;46.082;18.234;2023-08-06T07:49:33;98412.28;;;20.17;69.50
78584;BME280;67880;46.082;18.234;2023-08-06T07:50:25;98413.00;;;20.29;68.71
78584;BME280;67880;46.082;18.234;2023-08-06T07:51:11;98406.94;;;20.27;69.14
78584;BME280;67880;46.082;18.234;2023-08-06T07:52:24;98410.28;;;20.51;68.54
78584;BME280;67880;46.082;18.234;2023-08-06T07:53:01;98406.53;;;20.58;70.40
78584;BME280;67880;46.082;18.234;2023-08-06T07:53:38;98399.81;;;20.65;68.53
78584;BME280;67880;46.082;18.234;2023-08-06T07:54:34;98399.94;;;20.53;69.02
78584;BME280;67880;46.082;18.234;2023-08-06T07:55:12;98394.41;;;20.26;68.49
78584;BME280;67880;46.082;18.234;2023-08-06T07:55:53;98388.66;;;20.23;68.41
78584;BME280;67880;46.082;18.234;2023-08-06T07:56:27;98399.19;;;20.36;67.94
78584;BME280;67880;46.082;18.234;2023-08-06T07:57:16;98393.47;;;20.60;68.26
78584;BME280;67880;46.082;18.234;2023-08-06T07:57:56;98377.59;;;20.78;67.90
78584;BME280;67880;46.082;18.234;2023-08-06T07:58:34;98387.41;;;20.79;66.93
78584;BME280;67880;46.082;18.234;2023-08-06T07:59:09;98386.16;;;20.87;67.55
78584;BME280;67880;46.082;18.234;2023-08-06T07:59:49;98390.63;;;20.98;67.14
78584;BME280;67880;46.082;18.234;2023-08-06T08:00:25;98381.41;;;21.04;66.52
78584;BME280;67880;46.082;18.234;2023-08-06T08:01:12;98390.63;;;20.98;67.06
78584;BME280;67880;46.082;18.234;2023-08-06T08:02:07;98390.81;;;20.92;65.58
78584;BME280;67880;46.082;18.234;2023-08-06T08:03:28;98381.53;;;20.93;65.52
78584;BME280;67880;46.082;18.234;2023-08-06T08:04:05;98375.84;;;20.94;66.01